Terminal Aerodrome Forecast
Issued by NWS

Home | Current Version | Previous Version | Text Only | Print | Product List | Glossary On
Versions: 1 2 3 4 5 6 7 8 9 10 11 12 13 14 15 16 17 18 19
000
FTUS46 KMTR 182300
TAFSNS
TAF
KSNS 182330Z 1900/1924 25012KT P6SM OVC015
     FM190200 26010KT P6SM OVC010
     FM191100 26005KT P6SM OVC007
     FM191500 26005KT P6SM SCT007 BKN015
     FM191900 28008KT P6SM SCT015
     FM192100 26012KT P6SM SKC=

USA.gov is the U.S. government's official web portal to all federal, state and local government web resources and services.